sensor_id;sensor_type;location;lat;lon;timestamp;pressure;altitude;pressure_sealevel;temperature;humidity
40954;BME280;26686;50.130;8.710;2022-12-07T00:01:56;100258.03;;;5.93;72.07
40954;BME280;26686;50.130;8.710;2022-12-07T00:06:57;100267.38;;;5.99;72.32
40954;BME280;26686;50.130;8.710;2022-12-07T00:11:59;100258.69;;;5.82;72.29
40954;BME280;26686;50.130;8.710;2022-12-07T00:17:00;100250.56;;;5.86;72.47
40954;BME280;26686;50.130;8.710;2022-12-07T00:22:02;100244.22;;;5.88;72.85
40954;BME280;26686;50.130;8.710;2022-12-07T00:27:03;100214.41;;;5.72;72.79
40954;BME280;26686;50.130;8.710;2022-12-07T00:32:05;100233.00;;;5.84;71.85
40954;BME280;26686;50.130;8.710;2022-12-07T00:37:06;100213.66;;;5.70;71.46
40954;BME280;26686;50.130;8.710;2022-12-07T00:42:07;100192.97;;;5.47;72.58
40954;BME280;26686;50.130;8.710;2022-12-07T00:47:09;100205.72;;;5.55;72.97
40954;BME280;26686;50.130;8.710;2022-12-07T00:52:10;100216.94;;;5.59;73.56
40954;BME280;26686;50.130;8.710;2022-12-07T00:57:11;100223.72;;;5.63;73.65
40954;BME280;26686;50.130;8.710;2022-12-07T01:02:13;100194.38;;;5.39;74.06
40954;BME280;26686;50.130;8.710;2022-12-07T01:07:14;100222.97;;;5.46;74.75
40954;BME280;26686;50.130;8.710;2022-12-07T01:12:15;100222.56;;;5.38;75.15
40954;BME280;26686;50.130;8.710;2022-12-07T01:17:17;100207.94;;;5.32;75.11
40954;BME280;26686;50.130;8.710;2022-12-07T01:22:18;100192.66;;;5.23;75.13
40954;BME280;26686;50.130;8.710;2022-12-07T01:27:19;100198.28;;;5.17;75.60
40954;BME280;26686;50.130;8.710;2022-12-07T01:32:21;100180.72;;;5.02;76.77
40954;BME280;26686;50.130;8.710;2022-12-07T01:37:22;100200.09;;;5.17;76.47
40954;BME280;26686;50.130;8.710;2022-12-07T01:42:24;100209.56;;;5.05;76.04
40954;BME280;26686;50.130;8.710;2022-12-07T01:47:25;100210.84;;;5.13;76.04
40954;BME280;26686;50.130;8.710;2022-12-07T01:52:31;100205.41;;;5.01;75.75
40954;BME280;26686;50.130;8.710;2022-12-07T01:57:37;100209.31;;;5.09;75.50
40954;BME280;26686;50.130;8.710;2022-12-07T02:02:47;100198.75;;;5.09;75.28
40954;BME280;26686;50.130;8.710;2022-12-07T02:07:51;100195.94;;;5.12;76.05
40954;BME280;26686;50.130;8.710;2022-12-07T02:12:56;100192.44;;;5.12;76.07
40954;BME280;26686;50.130;8.710;2022-12-07T02:29:27;100174.03;;;4.96;78.13
40954;BME280;26686;50.130;8.710;2022-12-07T02:34:53;100169.00;;;4.91;78.13
40954;BME280;26686;50.130;8.710;2022-12-07T02:40:02;100172.38;;;4.79;78.96
40954;BME280;26686;50.130;8.710;2022-12-07T02:45:06;100176.50;;;4.83;79.01
40954;BME280;26686;50.130;8.710;2022-12-07T02:50:10;100170.03;;;4.89;78.29
40954;BME280;26686;50.130;8.710;2022-12-07T02:55:12;100169.13;;;5.04;77.69
40954;BME280;26686;50.130;8.710;2022-12-07T03:00:18;100172.66;;;5.19;77.45
40954;BME280;26686;50.130;8.710;2022-12-07T03:16:02;100157.09;;;5.00;78.04
40954;BME280;26686;50.130;8.710;2022-12-07T03:21:11;100151.72;;;5.02;77.92
40954;BME280;26686;50.130;8.710;2022-12-07T03:26:16;100158.94;;;4.98;77.66
40954;BME280;26686;50.130;8.710;2022-12-07T03:31:33;100159.94;;;4.81;77.97
40954;BME280;26686;50.130;8.710;2022-12-07T03:36:43;100161.72;;;4.81;78.98
40954;BME280;26686;50.130;8.710;2022-12-07T03:41:47;100148.81;;;4.76;78.87
40954;BME280;26686;50.130;8.710;2022-12-07T03:47:02;100154.03;;;4.62;79.46
40954;BME280;26686;50.130;8.710;2022-12-07T03:52:11;100157.66;;;4.59;80.13
40954;BME280;26686;50.130;8.710;2022-12-07T03:57:15;100143.66;;;4.58;80.09
40954;BME280;26686;50.130;8.710;2022-12-07T04:02:19;100139.84;;;4.48;80.44
40954;BME280;26686;50.130;8.710;2022-12-07T04:07:21;100129.38;;;4.63;80.59
40954;BME280;26686;50.130;8.710;2022-12-07T04:12:23;100134.81;;;4.59;80.42
40954;BME280;26686;50.130;8.710;2022-12-07T04:17:24;100140.84;;;4.62;80.81
40954;BME280;26686;50.130;8.710;2022-12-07T04:22:26;100123.31;;;4.60;80.88
40954;BME280;26686;50.130;8.710;2022-12-07T04:27:27;100142.19;;;4.69;80.43
40954;BME280;26686;50.130;8.710;2022-12-07T04:32:29;100139.38;;;4.72;80.53
40954;BME280;26686;50.130;8.710;2022-12-07T04:37:30;100142.44;;;4.94;79.77
40954;BME280;26686;50.130;8.710;2022-12-07T04:42:31;100130.97;;;4.95;79.21
40954;BME280;26686;50.130;8.710;2022-12-07T04:47:33;100139.63;;;4.98;79.52
40954;BME280;26686;50.130;8.710;2022-12-07T04:52:34;100121.53;;;4.91;79.24
40954;BME280;26686;50.130;8.710;2022-12-07T04:57:35;100121.94;;;4.69;79.59
40954;BME280;26686;50.130;8.710;2022-12-07T05:02:37;100125.16;;;4.74;80.05
40954;BME280;26686;50.130;8.710;2022-12-07T05:07:38;100123.56;;;4.72;80.46
40954;BME280;26686;50.130;8.710;2022-12-07T05:12:40;100114.66;;;4.58;81.13
40954;BME280;26686;50.130;8.710;2022-12-07T05:17:41;100089.03;;;4.30;81.35
40954;BME280;26686;50.130;8.710;2022-12-07T05:22:43;100129.94;;;4.68;81.19
40954;BME280;26686;50.130;8.710;2022-12-07T05:27:44;100130.56;;;4.87;80.47
40954;BME280;26686;50.130;8.710;2022-12-07T05:32:45;100126.22;;;4.86;80.10
40954;BME280;26686;50.130;8.710;2022-12-07T05:37:47;100123.81;;;4.98;80.42
40954;BME280;26686;50.130;8.710;2022-12-07T05:42:48;100121.75;;;5.17;79.74
40954;BME280;26686;50.130;8.710;2022-12-07T05:47:49;100123.47;;;5.18;79.82
40954;BME280;26686;50.130;8.710;2022-12-07T05:52:51;100127.69;;;5.21;79.90
40954;BME280;26686;50.130;8.710;2022-12-07T05:57:52;100119.22;;;5.16;79.37
40954;BME280;26686;50.130;8.710;2022-12-07T06:03:12;100122.69;;;5.16;79.60
40954;BME280;26686;50.130;8.710;2022-12-07T06:08:14;100124.22;;;5.20;79.71
40954;BME280;26686;50.130;8.710;2022-12-07T06:13:16;100116.50;;;5.17;80.02
40954;BME280;26686;50.130;8.710;2022-12-07T06:18:17;100110.75;;;5.10;80.29
40954;BME280;26686;50.130;8.710;2022-12-07T06:23:19;100116.31;;;5.20;80.11
40954;BME280;26686;50.130;8.710;2022-12-07T06:28:20;100116.84;;;5.25;79.41
40954;BME280;26686;50.130;8.710;2022-12-07T06:33:21;100107.25;;;5.24;79.57
40954;BME280;26686;50.130;8.710;2022-12-07T06:38:23;100124.81;;;5.40;79.73
40954;BME280;26686;50.130;8.710;2022-12-07T06:43:24;100127.53;;;5.38;79.38
40954;BME280;26686;50.130;8.710;2022-12-07T06:48:25;100129.16;;;5.41;79.24
40954;BME280;26686;50.130;8.710;2022-12-07T06:53:27;100136.59;;;5.48;79.01
40954;BME280;26686;50.130;8.710;2022-12-07T06:58:29;100127.94;;;5.46;79.19
40954;BME280;26686;50.130;8.710;2022-12-07T07:03:31;100139.88;;;5.52;79.12
40954;BME280;26686;50.130;8.710;2022-12-07T07:08:33;100151.03;;;5.57;78.67
40954;BME280;26686;50.130;8.710;2022-12-07T07:13:35;100146.88;;;5.53;79.25
40954;BME280;26686;50.130;8.710;2022-12-07T07:18:36;100155.56;;;5.70;79.36
40954;BME280;26686;50.130;8.710;2022-12-07T07:23:38;100167.34;;;5.78;78.53
40954;BME280;26686;50.130;8.710;2022-12-07T07:28:39;100159.88;;;5.85;78.22
40954;BME280;26686;50.130;8.710;2022-12-07T07:33:41;100160.25;;;5.79;78.16
40954;BME280;26686;50.130;8.710;2022-12-07T07:38:42;100153.56;;;5.73;78.27
40954;BME280;26686;50.130;8.710;2022-12-07T07:43:43;100154.63;;;5.71;78.35
40954;BME280;26686;50.130;8.710;2022-12-07T07:48:45;100118.66;;;5.54;77.99
40954;BME280;26686;50.130;8.710;2022-12-07T07:53:46;100137.16;;;5.68;78.04
40954;BME280;26686;50.130;8.710;2022-12-07T07:58:51;100156.47;;;5.69;78.88
40954;BME280;26686;50.130;8.710;2022-12-07T08:03:53;100143.19;;;5.70;78.93
40954;BME280;26686;50.130;8.710;2022-12-07T08:08:54;100154.34;;;5.75;78.64
40954;BME280;26686;50.130;8.710;2022-12-07T08:13:56;100140.09;;;5.63;78.70
40954;BME280;26686;50.130;8.710;2022-12-07T08:18:57;100156.69;;;5.80;79.11
40954;BME280;26686;50.130;8.710;2022-12-07T08:23:59;100169.22;;;5.76;78.38
40954;BME280;26686;50.130;8.710;2022-12-07T08:29:01;100180.63;;;5.62;78.73
40954;BME280;26686;50.130;8.710;2022-12-07T08:34:02;100165.81;;;5.74;78.49
40954;BME280;26686;50.130;8.710;2022-12-07T08:39:04;100162.81;;;5.80;78.01
40954;BME280;26686;50.130;8.710;2022-12-07T08:44:25;100157.53;;;5.80;78.08
40954;BME280;26686;50.130;8.710;2022-12-07T08:49:31;100167.59;;;5.88;78.20
40954;BME280;26686;50.130;8.710;2022-12-07T08:54:36;100154.03;;;5.65;78.04
40954;BME280;26686;50.130;8.710;2022-12-07T08:59:39;100172.34;;;5.83;77.94
40954;BME280;26686;50.130;8.710;2022-12-07T09:04:41;100168.47;;;5.89;78.16
40954;BME280;26686;50.130;8.710;2022-12-07T09:09:42;100175.53;;;5.88;77.48
40954;BME280;26686;50.130;8.710;2022-12-07T09:14:43;100174.06;;;5.98;76.98
40954;BME280;26686;50.130;8.710;2022-12-07T09:19:45;100124.59;;;5.72;77.30
40954;BME280;26686;50.130;8.710;2022-12-07T09:24:46;100173.56;;;6.06;76.55
40954;BME280;26686;50.130;8.710;2022-12-07T09:29:48;100170.63;;;6.25;75.79
40954;BME280;26686;50.130;8.710;2022-12-07T09:34:49;100174.47;;;6.34;74.54
40954;BME280;26686;50.130;8.710;2022-12-07T09:39:51;100189.66;;;6.45;74.21
40954;BME280;26686;50.130;8.710;2022-12-07T09:44:53;100177.13;;;6.61;73.45
40954;BME280;26686;50.130;8.710;2022-12-07T09:50:07;100182.22;;;7.04;71.70
40954;BME280;26686;50.130;8.710;2022-12-07T09:55:15;100159.19;;;7.19;70.43
40954;BME280;26686;50.130;8.710;2022-12-07T10:00:20;100166.38;;;7.56;69.90
40954;BME280;26686;50.130;8.710;2022-12-07T10:05:27;100167.44;;;7.40;69.89
40954;BME280;26686;50.130;8.710;2022-12-07T10:10:31;100162.78;;;7.57;69.71
40954;BME280;26686;50.130;8.710;2022-12-07T10:26:20;100154.50;;;7.87;67.11
40954;BME280;26686;50.130;8.710;2022-12-07T10:31:23;100147.97;;;7.67;67.84
40954;BME280;26686;50.130;8.710;2022-12-07T10:41:28;100143.72;;;7.26;67.01
40954;BME280;26686;50.130;8.710;2022-12-07T10:46:45;100130.47;;;8.14;65.40
40954;BME280;26686;50.130;8.710;2022-12-07T11:08:59;100111.06;;;19.36;38.27
40954;BME280;26686;50.130;8.710;2022-12-07T11:19:32;100109.00;;;12.94;44.05
40954;BME280;26686;50.130;8.710;2022-12-07T11:25:02;100104.75;;;11.00;49.88
40954;BME280;26686;50.130;8.710;2022-12-07T11:30:29;100089.16;;;9.86;53.21
40954;BME280;26686;50.130;8.710;2022-12-07T11:40:40;100087.47;;;9.51;55.02
40954;BME280;26686;50.130;8.710;2022-12-07T11:45:44;100084.50;;;8.75;55.64
40954;BME280;26686;50.130;8.710;2022-12-07T11:50:51;100064.97;;;8.52;57.63
40954;BME280;26686;50.130;8.710;2022-12-07T12:01:18;100066.84;;;10.21;54.82
40954;BME280;26686;50.130;8.710;2022-12-07T12:06:25;100045.34;;;17.19;37.65
40954;BME280;26686;50.130;8.710;2022-12-07T12:11:53;100012.81;;;16.40;37.04
40954;BME280;26686;50.130;8.710;2022-12-07T12:17:33;100043.63;;;13.46;42.96
40954;BME280;26686;50.130;8.710;2022-12-07T12:22:46;100021.13;;;11.43;47.07
40954;BME280;26686;50.130;8.710;2022-12-07T12:27:50;100035.97;;;10.63;48.36
40954;BME280;26686;50.130;8.710;2022-12-07T12:33:01;100030.38;;;10.12;51.32
40954;BME280;26686;50.130;8.710;2022-12-07T12:38:32;100023.50;;;10.31;51.21
40954;BME280;26686;50.130;8.710;2022-12-07T12:43:44;100012.09;;;17.04;37.44
40954;BME280;26686;50.130;8.710;2022-12-07T12:48:47;99994.53;;;13.37;43.02
40954;BME280;26686;50.130;8.710;2022-12-07T12:53:49;100000.72;;;11.22;47.94
40954;BME280;26686;50.130;8.710;2022-12-07T12:59:18;100010.06;;;10.11;51.12
40954;BME280;26686;50.130;8.710;2022-12-07T13:04:38;100021.44;;;9.58;53.41
40954;BME280;26686;50.130;8.710;2022-12-07T13:09:43;100011.38;;;9.62;53.56
40954;BME280;26686;50.130;8.710;2022-12-07T13:19:55;100024.06;;;11.09;51.93
40954;BME280;26686;50.130;8.710;2022-12-07T13:24:58;100014.09;;;11.42;53.12
40954;BME280;26686;50.130;8.710;2022-12-07T13:30:01;100002.44;;;17.74;39.37
40954;BME280;26686;50.130;8.710;2022-12-07T13:35:29;100006.00;;;20.44;33.95
40954;BME280;26686;50.130;8.710;2022-12-07T13:40:31;100000.75;;;14.55;42.48
40954;BME280;26686;50.130;8.710;2022-12-07T13:45:33;100015.69;;;12.05;49.34
40954;BME280;26686;50.130;8.710;2022-12-07T13:50:54;100012.41;;;10.58;52.65
40954;BME280;26686;50.130;8.710;2022-12-07T13:55:57;99996.75;;;10.11;53.29
40954;BME280;26686;50.130;8.710;2022-12-07T14:01:00;100005.69;;;9.78;55.10
40954;BME280;26686;50.130;8.710;2022-12-07T14:11:27;100006.53;;;8.65;58.58
40954;BME280;26686;50.130;8.710;2022-12-07T14:16:35;100001.72;;;8.70;59.02
40954;BME280;26686;50.130;8.710;2022-12-07T14:21:37;100000.06;;;8.45;59.58
40954;BME280;26686;50.130;8.710;2022-12-07T14:26:39;99997.97;;;8.37;61.20
40954;BME280;26686;50.130;8.710;2022-12-07T14:31:41;100005.09;;;8.37;61.10
40954;BME280;26686;50.130;8.710;2022-12-07T14:36:43;100001.06;;;8.20;60.95
40954;BME280;26686;50.130;8.710;2022-12-07T14:41:44;99992.81;;;8.11;62.14
40954;BME280;26686;50.130;8.710;2022-12-07T14:46:52;100005.94;;;8.02;62.47
40954;BME280;26686;50.130;8.710;2022-12-07T14:52:20;99994.56;;;8.00;64.71
40954;BME280;26686;50.130;8.710;2022-12-07T14:57:43;99995.94;;;8.05;62.91
40954;BME280;26686;50.130;8.710;2022-12-07T15:02:45;99990.78;;;7.91;62.45
40954;BME280;26686;50.130;8.710;2022-12-07T15:07:47;99996.47;;;7.49;64.21
40954;BME280;26686;50.130;8.710;2022-12-07T15:12:50;99977.22;;;7.34;65.56
40954;BME280;26686;50.130;8.710;2022-12-07T15:17:51;99991.09;;;7.25;66.22
40954;BME280;26686;50.130;8.710;2022-12-07T15:22:52;99996.72;;;7.20;67.07
40954;BME280;26686;50.130;8.710;2022-12-07T15:27:54;99992.28;;;7.08;67.79
40954;BME280;26686;50.130;8.710;2022-12-07T15:32:55;99993.22;;;7.20;67.66
40954;BME280;26686;50.130;8.710;2022-12-07T15:37:57;99985.28;;;7.20;67.31
40954;BME280;26686;50.130;8.710;2022-12-07T15:42:58;99983.69;;;7.17;67.46
40954;BME280;26686;50.130;8.710;2022-12-07T15:47:59;99955.78;;;7.00;67.06
40954;BME280;26686;50.130;8.710;2022-12-07T15:53:21;99967.63;;;7.07;67.65
40954;BME280;26686;50.130;8.710;2022-12-07T15:58:22;99969.63;;;7.17;67.66
40954;BME280;26686;50.130;8.710;2022-12-07T16:03:23;99964.72;;;7.23;67.82
40954;BME280;26686;50.130;8.710;2022-12-07T16:08:25;99962.13;;;7.11;67.48
40954;BME280;26686;50.130;8.710;2022-12-07T16:13:34;99958.03;;;6.94;68.88
40954;BME280;26686;50.130;8.710;2022-12-07T16:18:35;99960.97;;;7.02;68.92
40954;BME280;26686;50.130;8.710;2022-12-07T16:23:37;99965.63;;;6.98;68.80
40954;BME280;26686;50.130;8.710;2022-12-07T16:28:38;99957.16;;;7.06;69.02
40954;BME280;26686;50.130;8.710;2022-12-07T16:33:41;99945.22;;;6.75;69.12
40954;BME280;26686;50.130;8.710;2022-12-07T16:38:43;99945.53;;;6.70;69.53
40954;BME280;26686;50.130;8.710;2022-12-07T16:43:52;99925.31;;;6.82;69.60
40954;BME280;26686;50.130;8.710;2022-12-07T16:48:53;99939.59;;;6.92;68.51
40954;BME280;26686;50.130;8.710;2022-12-07T16:53:55;99937.06;;;6.78;69.21
40954;BME280;26686;50.130;8.710;2022-12-07T16:58:59;99932.19;;;6.84;69.16
40954;BME280;26686;50.130;8.710;2022-12-07T17:04:01;99935.38;;;6.77;68.76
40954;BME280;26686;50.130;8.710;2022-12-07T17:09:03;99937.28;;;6.75;68.91
40954;BME280;26686;50.130;8.710;2022-12-07T17:14:10;99935.28;;;6.52;68.64
40954;BME280;26686;50.130;8.710;2022-12-07T17:19:30;99930.09;;;6.51;69.26
40954;BME280;26686;50.130;8.710;2022-12-07T17:24:31;99918.88;;;6.34;69.92
40954;BME280;26686;50.130;8.710;2022-12-07T17:29:32;99932.22;;;6.46;70.24
40954;BME280;26686;50.130;8.710;2022-12-07T17:34:34;99910.63;;;6.52;69.75
40954;BME280;26686;50.130;8.710;2022-12-07T17:39:37;99926.81;;;6.60;70.45
40954;BME280;26686;50.130;8.710;2022-12-07T17:44:39;99923.94;;;6.63;70.55
40954;BME280;26686;50.130;8.710;2022-12-07T17:49:40;99901.72;;;6.53;70.64
40954;BME280;26686;50.130;8.710;2022-12-07T17:54:42;99917.16;;;6.33;71.64
40954;BME280;26686;50.130;8.710;2022-12-07T17:59:43;99913.56;;;6.34;71.81
40954;BME280;26686;50.130;8.710;2022-12-07T18:04:45;99910.84;;;6.49;71.02
40954;BME280;26686;50.130;8.710;2022-12-07T18:09:47;99895.63;;;6.40;70.47
40954;BME280;26686;50.130;8.710;2022-12-07T18:14:49;99923.72;;;6.66;70.19
40954;BME280;26686;50.130;8.710;2022-12-07T18:19:51;99905.09;;;6.68;70.18
40954;BME280;26686;50.130;8.710;2022-12-07T18:24:52;99905.97;;;6.68;69.86
40954;BME280;26686;50.130;8.710;2022-12-07T18:29:55;99910.63;;;6.78;70.21
40954;BME280;26686;50.130;8.710;2022-12-07T18:34:56;99890.50;;;6.75;69.92
40954;BME280;26686;50.130;8.710;2022-12-07T18:39:58;99894.22;;;6.72;70.08
40954;BME280;26686;50.130;8.710;2022-12-07T18:44:59;99901.41;;;6.83;69.92
40954;BME280;26686;50.130;8.710;2022-12-07T18:50:01;99893.47;;;6.83;70.21
40954;BME280;26686;50.130;8.710;2022-12-07T18:55:02;99883.22;;;6.79;69.55
40954;BME280;26686;50.130;8.710;2022-12-07T19:00:04;99849.38;;;6.58;69.26
40954;BME280;26686;50.130;8.710;2022-12-07T19:05:06;99877.16;;;6.77;69.65
40954;BME280;26686;50.130;8.710;2022-12-07T19:10:08;99870.81;;;6.66;69.46
40954;BME280;26686;50.130;8.710;2022-12-07T19:15:11;99875.38;;;6.64;70.26
40954;BME280;26686;50.130;8.710;2022-12-07T19:20:13;99859.84;;;6.47;70.74
40954;BME280;26686;50.130;8.710;2022-12-07T19:25:15;99870.09;;;6.51;70.81
40954;BME280;26686;50.130;8.710;2022-12-07T19:30:17;99861.13;;;6.54;71.36
40954;BME280;26686;50.130;8.710;2022-12-07T19:35:18;99865.97;;;6.60;71.41
40954;BME280;26686;50.130;8.710;2022-12-07T19:40:19;99867.69;;;6.61;70.79
40954;BME280;26686;50.130;8.710;2022-12-07T19:45:21;99861.56;;;6.61;71.22
40954;BME280;26686;50.130;8.710;2022-12-07T19:50:22;99861.94;;;6.67;70.99
40954;BME280;26686;50.130;8.710;2022-12-07T19:55:24;99841.66;;;6.55;71.71
40954;BME280;26686;50.130;8.710;2022-12-07T20:00:25;99851.25;;;6.69;71.81
40954;BME280;26686;50.130;8.710;2022-12-07T20:05:26;99855.63;;;6.57;72.12
40954;BME280;26686;50.130;8.710;2022-12-07T20:10:28;99843.97;;;6.47;72.81
40954;BME280;26686;50.130;8.710;2022-12-07T20:15:29;99832.38;;;6.11;73.55
40954;BME280;26686;50.130;8.710;2022-12-07T20:20:30;99844.41;;;6.15;73.69
40954;BME280;26686;50.130;8.710;2022-12-07T20:25:35;99852.69;;;6.23;73.53
40954;BME280;26686;50.130;8.710;2022-12-07T20:30:36;99834.63;;;5.90;74.57
40954;BME280;26686;50.130;8.710;2022-12-07T20:35:38;99826.41;;;5.94;74.10
40954;BME280;26686;50.130;8.710;2022-12-07T20:40:45;99836.97;;;5.94;74.58
40954;BME280;26686;50.130;8.710;2022-12-07T20:45:48;99825.94;;;5.75;74.56
40954;BME280;26686;50.130;8.710;2022-12-07T20:50:49;99824.38;;;5.72;74.93
40954;BME280;26686;50.130;8.710;2022-12-07T20:55:51;99822.38;;;5.76;75.01
40954;BME280;26686;50.130;8.710;2022-12-07T21:01:01;99827.66;;;5.76;74.41
40954;BME280;26686;50.130;8.710;2022-12-07T21:06:03;99812.84;;;5.60;75.11
40954;BME280;26686;50.130;8.710;2022-12-07T21:11:06;99813.38;;;5.53;75.29
40954;BME280;26686;50.130;8.710;2022-12-07T21:16:16;99806.00;;;5.30;75.83
40954;BME280;26686;50.130;8.710;2022-12-07T21:21:19;99809.38;;;5.32;75.91
40954;BME280;26686;50.130;8.710;2022-12-07T21:26:22;99802.78;;;5.12;76.60
40954;BME280;26686;50.130;8.710;2022-12-07T21:31:24;99804.06;;;5.20;76.34
40954;BME280;26686;50.130;8.710;2022-12-07T21:36:26;99792.44;;;5.09;76.35
40954;BME280;26686;50.130;8.710;2022-12-07T21:41:30;99797.00;;;4.93;77.18
40954;BME280;26686;50.130;8.710;2022-12-07T21:46:32;99787.75;;;5.00;76.74
40954;BME280;26686;50.130;8.710;2022-12-07T21:51:35;99784.09;;;4.88;77.33
40954;BME280;26686;50.130;8.710;2022-12-07T21:56:39;99787.88;;;5.11;77.27
40954;BME280;26686;50.130;8.710;2022-12-07T22:01:43;99785.13;;;5.00;77.24
40954;BME280;26686;50.130;8.710;2022-12-07T22:06:47;99796.50;;;5.01;77.53
40954;BME280;26686;50.130;8.710;2022-12-07T22:11:49;99762.50;;;4.69;77.94
40954;BME280;26686;50.130;8.710;2022-12-07T22:16:51;99785.75;;;4.76;78.57
40954;BME280;26686;50.130;8.710;2022-12-07T22:21:52;99772.75;;;4.73;78.36
40954;BME280;26686;50.130;8.710;2022-12-07T22:26:54;99773.19;;;4.80;78.39
40954;BME280;26686;50.130;8.710;2022-12-07T22:31:55;99761.59;;;4.55;79.26
40954;BME280;26686;50.130;8.710;2022-12-07T22:36:56;99761.19;;;4.62;79.48
40954;BME280;26686;50.130;8.710;2022-12-07T22:41:58;99768.72;;;4.53;80.10
40954;BME280;26686;50.130;8.710;2022-12-07T22:46:59;99761.97;;;4.49;80.45
40954;BME280;26686;50.130;8.710;2022-12-07T22:52:00;99750.91;;;4.30;80.75
40954;BME280;26686;50.130;8.710;2022-12-07T22:57:02;99754.28;;;4.32;81.52
40954;BME280;26686;50.130;8.710;2022-12-07T23:02:03;99752.75;;;4.42;81.02
40954;BME280;26686;50.130;8.710;2022-12-07T23:07:05;99745.28;;;4.49;80.47
40954;BME280;26686;50.130;8.710;2022-12-07T23:12:06;99733.59;;;4.67;79.82
40954;BME280;26686;50.130;8.710;2022-12-07T23:17:26;99739.31;;;4.74;79.18
40954;BME280;26686;50.130;8.710;2022-12-07T23:22:27;99734.59;;;4.79;79.37
40954;BME280;26686;50.130;8.710;2022-12-07T23:27:29;99718.63;;;4.68;79.13
40954;BME280;26686;50.130;8.710;2022-12-07T23:32:30;99732.44;;;4.71;79.59
40954;BME280;26686;50.130;8.710;2022-12-07T23:37:31;99737.06;;;4.68;79.48
40954;BME280;26686;50.130;8.710;2022-12-07T23:42:33;99735.22;;;4.55;80.16
40954;BME280;26686;50.130;8.710;2022-12-07T23:47:34;99714.63;;;4.48;80.25
40954;BME280;26686;50.130;8.710;2022-12-07T23:52:35;99719.59;;;4.52;80.52
40954;BME280;26686;50.130;8.710;2022-12-07T23:57:37;99711.44;;;4.42;80.89
